createdAt,value
2023-01-25T06:32:10.788Z,17.42
2023-01-25T06:34:38.097Z,23.48
2023-01-25T06:37:05.234Z,19.65
2023-01-25T06:39:32.746Z,18.25
2023-01-25T06:41:59.875Z,15.82
2023-01-25T06:44:27.086Z,14.70
2023-01-25T06:46:55.425Z,18.25
2023-01-25T06:49:22.615Z,16.50
2023-01-25T06:51:50.062Z,15.93
2023-01-25T06:54:19.389Z,15.15
2023-01-25T06:56:46.578Z,16.60
2023-01-25T06:59:16.124Z,15.95
2023-01-25T07:01:43.529Z,17.88
2023-01-25T07:04:12.266Z,15.32
2023-01-25T07:06:40.751Z,14.90
2023-01-25T07:09:11.537Z,17.90
2023-01-25T07:11:42.372Z,16.13
2023-01-25T07:14:09.791Z,15.43
2023-01-25T07:16:39.557Z,16.13
2023-01-25T07:19:08.208Z,16.27
2023-01-25T07:21:35.596Z,16.02
2023-01-25T07:24:05.099Z,14.77
2023-01-25T07:26:32.675Z,16.77
2023-01-25T07:29:00.692Z,16.70
2023-01-25T07:31:28.885Z,15.27
2023-01-25T07:33:57.836Z,14.30
2023-01-25T07:36:26.068Z,16.45
2023-01-25T07:38:55.156Z,15.63
2023-01-25T07:41:23.949Z,15.82
2023-01-25T07:43:52.531Z,15.55
2023-01-25T07:46:20.349Z,14.63
2023-01-25T07:48:50.363Z,18.02
2023-01-25T07:51:23.691Z,14.32
2023-01-25T07:53:54.164Z,15.77
2023-01-25T07:56:25.452Z,14.65
2023-01-25T07:58:54.874Z,15.98
2023-01-25T08:01:24.385Z,15.70
2023-01-25T08:03:52.368Z,15.55
2023-01-25T08:06:27.504Z,16.55
2023-01-25T08:08:55.601Z,18.20
2023-01-25T08:11:27.267Z,16.13
2023-01-25T08:13:55.875Z,15.23
2023-01-25T08:16:29.600Z,15.88
2023-01-25T08:19:00.632Z,15.25
2023-01-25T08:21:30.094Z,17.05
2023-01-25T08:23:59.665Z,15.05
2023-01-25T08:26:28.382Z,17.13
2023-01-25T08:28:56.376Z,15.20
2023-01-25T08:31:26.597Z,14.43
2023-01-25T08:33:54.811Z,12.35
2023-01-25T08:36:24.321Z,15.05
2023-01-25T08:38:57.875Z,15.65
2023-01-25T08:41:27.221Z,14.40
2023-01-25T08:43:55.564Z,13.68
2023-01-25T08:46:24.909Z,14.02
2023-01-25T08:48:57.529Z,13.02
2023-01-25T08:51:25.879Z,12.73
2023-01-25T08:53:54.721Z,15.32
2023-01-25T08:56:22.285Z,12.18
2023-01-25T08:58:50.971Z,14.27
2023-01-25T09:01:20.326Z,12.98
2023-01-25T09:03:51.133Z,11.90
2023-01-25T09:06:20.454Z,13.40
2023-01-25T09:08:48.517Z,13.60
2023-01-25T09:11:20.311Z,12.68
2023-01-25T09:13:49.168Z,11.75
2023-01-25T09:16:20.746Z,10.90
2023-01-25T09:18:50.696Z,11.75
2023-01-25T09:21:20.085Z,11.93
2023-01-25T09:24:05.001Z,12.25
2023-01-25T09:26:36.982Z,11.45
2023-01-25T09:29:06.431Z,12.52
2023-01-25T09:31:34.412Z,11.98
2023-01-25T09:34:03.828Z,11.85
2023-01-25T09:36:31.829Z,11.32
2023-01-25T09:39:00.042Z,11.13
2023-01-25T09:41:45.535Z,11.30
2023-01-25T09:44:53.108Z,10.25
2023-01-25T09:47:34.970Z,9.90
2023-01-25T09:55:41.741Z,10.75
2023-01-25T09:58:18.689Z,10.88
2023-01-25T10:00:50.825Z,11.48
2023-01-25T10:03:26.480Z,10.00
2023-01-25T10:05:58.125Z,9.32
2023-01-25T10:08:43.298Z,9.73
2023-01-25T10:11:24.636Z,10.23
2023-01-25T10:13:52.618Z,10.77
2023-01-25T10:16:31.234Z,8.70
2023-01-25T10:19:19.382Z,10.32
2023-01-25T10:21:55.073Z,9.88
2023-01-25T10:24:48.071Z,9.38
2023-01-25T10:27:50.169Z,9.38
2023-01-25T10:30:27.599Z,9.65
2023-01-25T10:32:58.849Z,10.15
2023-01-25T10:35:35.900Z,10.27
2023-01-25T10:38:17.059Z,10.82
2023-01-25T10:40:54.673Z,8.90
2023-01-25T10:43:23.099Z,9.70
2023-01-25T10:45:51.901Z,9.43
2023-01-25T10:48:23.673Z,9.23
2023-01-25T10:50:54.889Z,8.48
2023-01-25T10:53:27.988Z,10.45
2023-01-25T10:56:13.911Z,9.80
2023-01-25T10:58:46.166Z,9.23
2023-01-25T11:01:28.321Z,9.93
2023-01-25T11:03:56.563Z,10.30
2023-01-25T11:06:33.619Z,9.85
2023-01-25T11:09:02.314Z,9.50
2023-01-25T11:11:36.609Z,8.90
2023-01-25T11:14:17.658Z,10.60
2023-01-25T11:16:48.308Z,9.13
2023-01-25T11:19:37.193Z,8.52
2023-01-25T11:22:21.592Z,9.32
2023-01-25T11:24:48.923Z,9.43
2023-01-25T11:27:22.804Z,9.70
2023-01-25T11:33:02.380Z,8.07
2023-01-25T11:35:35.134Z,8.77
2023-01-25T11:38:15.047Z,8.93
2023-01-25T11:40:49.122Z,9.15
2023-01-25T11:43:57.078Z,8.50
2023-01-25T11:46:43.906Z,7.68
2023-01-25T11:52:37.311Z,7.88
2023-01-25T11:55:35.735Z,8.65
2023-01-25T11:58:37.040Z,9.20
2023-01-25T12:01:32.093Z,8.45
2023-01-25T12:04:39.176Z,10.95
2023-01-25T12:07:30.866Z,8.88
2023-01-25T12:10:33.544Z,10.02
2023-01-25T12:13:24.573Z,9.05
2023-01-25T12:16:09.322Z,10.30
2023-01-25T12:19:16.598Z,9.80
2023-01-25T12:22:01.288Z,10.60
2023-01-25T12:24:56.984Z,8.07
2023-01-25T12:27:59.117Z,9.23
2023-01-25T12:30:55.402Z,9.68
2023-01-25T12:33:43.396Z,9.77
2023-01-25T12:36:25.305Z,9.55
2023-01-25T12:39:02.756Z,8.80
2023-01-25T12:41:41.341Z,9.02
2023-01-25T12:44:22.331Z,9.55
2023-01-25T12:47:01.332Z,9.98
2023-01-25T12:49:36.837Z,9.23
2023-01-25T12:52:20.600Z,9.90
2023-01-25T12:54:48.745Z,8.95
2023-01-25T12:57:27.035Z,10.00
2023-01-25T13:00:19.013Z,11.10
2023-01-25T13:05:43.514Z,10.27
2023-01-25T13:08:38.410Z,10.82
2023-01-25T13:11:36.237Z,9.10
2023-01-25T13:14:26.566Z,9.35
2023-01-25T13:17:09.336Z,9.25
2023-01-25T13:19:42.800Z,10.63
2023-01-25T13:25:05.567Z,10.45
2023-01-25T13:27:36.826Z,9.32
2023-01-25T13:30:30.528Z,11.07
2023-01-25T13:33:03.348Z,9.95
2023-01-25T13:35:41.016Z,11.43
2023-01-25T13:41:03.792Z,11.32
2023-01-25T13:43:31.223Z,9.65
2023-01-25T13:45:58.644Z,9.93
2023-01-25T13:48:29.394Z,9.77
2023-01-25T13:51:08.357Z,10.82
2023-01-25T13:53:41.930Z,10.60
2023-01-25T13:56:28.078Z,10.57
2023-01-25T13:58:55.361Z,11.18
2023-01-25T14:01:24.737Z,10.15
2023-01-25T14:03:56.601Z,10.32
2023-01-25T14:06:31.328Z,10.40
2023-01-25T14:09:03.111Z,11.02
2023-01-25T14:11:32.138Z,11.07
2023-01-25T14:14:02.874Z,9.90
2023-01-25T14:16:32.127Z,10.15
2023-01-25T14:19:24.391Z,10.45
2023-01-25T14:22:30.222Z,10.30
2023-01-25T14:25:15.545Z,10.70
2023-01-25T14:27:55.185Z,9.45
2023-01-25T14:30:28.450Z,11.05
2023-01-25T14:32:58.519Z,10.15
2023-01-25T14:35:42.957Z,10.27
2023-01-25T14:38:23.477Z,10.10
2023-01-25T14:40:56.902Z,10.35
2023-01-25T14:43:25.002Z,10.63
2023-01-25T14:45:52.235Z,9.80
2023-01-25T14:48:41.347Z,12.18
2023-01-25T14:51:24.639Z,9.68
2023-01-25T14:54:00.887Z,10.60
2023-01-25T14:56:49.911Z,7.95
2023-01-25T15:02:38.120Z,9.23
2023-01-25T15:05:36.435Z,10.10
2023-01-25T15:10:55.515Z,9.25
2023-01-25T15:13:26.638Z,8.70
2023-01-25T15:16:03.498Z,9.07
2023-01-25T15:18:53.248Z,10.57
2023-01-25T15:24:06.688Z,9.65
2023-01-25T15:26:36.051Z,9.93
2023-01-25T15:29:16.969Z,11.57
2023-01-25T15:31:44.249Z,8.38
2023-01-25T15:34:17.494Z,9.15
2023-01-25T15:36:44.999Z,9.25
2023-01-25T15:39:15.398Z,9.77
2023-01-25T15:41:42.990Z,8.68
2023-01-25T15:44:10.748Z,9.00
2023-01-25T15:46:41.580Z,9.20
2023-01-25T15:49:16.689Z,9.77
2023-01-25T15:51:43.832Z,10.85
2023-01-25T15:54:10.997Z,10.82
2023-01-25T15:56:41.813Z,10.75
2023-01-25T15:59:15.776Z,11.30
2023-01-25T16:01:43.608Z,11.45
2023-01-25T16:04:15.200Z,11.18
2023-01-25T16:06:48.437Z,11.05
2023-01-25T16:09:19.019Z,11.63
2023-01-25T16:11:50.984Z,10.32
2023-01-25T16:14:18.883Z,11.38
2023-01-25T16:16:49.782Z,10.80
2023-01-25T16:19:21.350Z,11.55
2023-01-25T16:21:49.528Z,10.77
2023-01-25T16:24:17.832Z,12.43
2023-01-25T16:26:51.735Z,11.55
2023-01-25T16:29:19.136Z,11.88
2023-01-25T16:31:46.481Z,11.40
2023-01-25T16:34:13.677Z,12.90
2023-01-25T16:36:41.326Z,13.82
2023-01-25T16:39:15.152Z,12.15
2023-01-25T16:41:42.327Z,11.07
2023-01-25T16:44:09.518Z,12.40
2023-01-25T16:46:36.750Z,13.13
2023-01-25T16:49:06.671Z,14.00
2023-01-25T16:51:34.015Z,15.00
2023-01-25T16:54:01.222Z,14.48
2023-01-25T16:56:30.760Z,14.13
2023-01-25T16:59:02.113Z,10.90
